Time;durP1;ratioP1;P1;durP2;ratioP2;P2;SDS_P1;SDS_P2;PMS_P1;PMS_P2;Temp;Humidity;BMP_temperature;BMP_pressure;BME280_temperature;BME280_humidity;BME280_pressure;Samples;Min_cycle;Max_cycle;Signal;HPM_P1;HPM_P2
2021/11/23 00:02:10;;;;;;;;;23.75;17.25;;;;;4.19;64.23;102061.63;5098493;27;45355;-60
2021/11/23 00:04:35;;;;;;;;;29.00;21.75;;;;;4.20;64.24;102059.84;5097443;27;67392;-60
2021/11/23 00:07:00;;;;;;;;;28.75;22.75;;;;;4.19;64.28;102060.75;5097733;27;59015;-60
2021/11/23 00:09:26;;;;;;;;;26.50;22.50;;;;;4.18;64.56;102059.94;5097759;27;57657;-60
2021/11/23 00:11:51;;;;;;;;;28.50;20.00;;;;;4.20;64.52;102055.50;5097476;27;66384;-60
2021/11/23 00:14:17;;;;;;;;;28.25;19.25;;;;;4.18;64.48;102054.72;5097570;27;63307;-60
2021/11/23 00:16:43;;;;;;;;;22.75;20.25;;;;;4.18;64.57;102059.06;5045401;27;45375;-60
2021/11/23 00:19:08;;;;;;;;;28.00;22.00;;;;;4.17;64.64;102053.03;5098173;27;45299;-60
2021/11/23 00:21:33;;;;;;;;;27.25;21.50;;;;;4.17;64.43;102055.63;5097657;27;56869;-60
2021/11/23 00:23:59;;;;;;;;;28.25;22.50;;;;;4.16;64.41;102051.31;5097173;27;64159;-60
2021/11/23 00:26:25;;;;;;;;;24.00;20.25;;;;;4.17;64.65;102047.81;5079799;27;45424;-60
2021/11/23 00:28:51;;;;;;;;;29.50;21.75;;;;;4.17;64.55;102050.41;5098185;27;45457;-60
2021/11/23 00:31:16;;;;;;;;;21.50;18.00;;;;;4.16;64.69;102046.13;5079355;27;47692;-60
2021/11/23 00:33:42;;;;;;;;;25.75;20.50;;;;;4.15;64.66;102041.81;5097064;27;67037;-60
2021/11/23 00:36:08;;;;;;;;;26.25;18.00;;;;;4.13;64.47;102036.66;5098038;27;45307;-60
2021/11/23 00:38:34;;;;;;;;;21.25;18.00;;;;;4.13;64.71;102043.63;5097927;27;45454;-60
2021/11/23 00:40:59;;;;;;;;;24.25;19.00;;;;;4.11;64.89;102040.25;5097650;27;46328;-60
2021/11/23 00:43:25;;;;;;;;;23.75;18.75;;;;;4.11;64.82;102037.63;5097641;27;47838;-60
2021/11/23 00:45:50;;;;;;;;;23.50;19.25;;;;;4.09;64.62;102042.88;5097722;27;45343;-60
2021/11/23 00:48:15;;;;;;;;;24.00;21.50;;;;;4.10;64.84;102046.34;5078694;27;60676;-60
2021/11/23 00:50:41;;;;;;;;;25.75;19.50;;;;;4.08;64.76;102045.56;5097548;27;46289;-60
2021/11/23 00:53:06;;;;;;;;;28.00;19.25;;;;;4.08;65.02;102042.94;5097340;27;51182;-60
2021/11/23 00:55:32;;;;;;;;;24.50;19.75;;;;;4.09;65.01;102047.25;5078808;27;59246;-60
2021/11/23 00:57:57;;;;;;;;;26.75;23.00;;;;;4.08;65.00;102051.59;5079506;27;45618;-60
2021/11/23 01:00:22;;;;;;;;;30.50;22.50;;;;;4.08;64.82;102053.34;5097536;27;45402;-60
2021/11/23 01:02:48;;;;;;;;;23.25;19.25;;;;;4.07;64.83;102046.47;5097601;27;45370;-60
2021/11/23 01:05:13;;;;;;;;;23.00;20.00;;;;;4.06;64.96;102056.00;5097017;27;59806;-60
2021/11/23 01:07:39;;;;;;;;;26.00;15.75;;;;;4.05;64.91;102054.31;5079343;27;45336;-60
2021/11/23 01:10:05;;;;;;;;;28.75;20.25;;;;;4.05;64.74;102048.25;5096420;27;73832;-60
2021/11/23 01:12:30;;;;;;;;;22.75;18.25;;;;;4.04;64.77;102042.19;5079249;27;45337;-60
2021/11/23 01:14:56;;;;;;;;;24.50;18.50;;;;;4.03;64.69;102050.91;5078629;27;58069;-60
2021/11/23 01:17:21;;;;;;;;;22.25;20.50;;;;;4.03;64.73;102052.69;5097506;27;45253;-60
2021/11/23 01:19:46;;;;;;;;;29.00;20.00;;;;;3.98;64.56;102051.09;5096384;27;46559;-60
2021/11/23 01:22:12;;;;;;;;;29.50;22.00;;;;;3.99;64.91;102044.13;5096665;27;66029;-60
2021/11/23 01:24:37;;;;;;;;;24.50;20.00;;;;;3.98;64.68;102048.50;5078818;27;45295;-60
2021/11/23 01:27:03;;;;;;;;;26.25;18.75;;;;;3.96;64.70;102045.09;5096509;27;57878;-60
2021/11/23 01:29:28;;;;;;;;;25.50;23.00;;;;;3.93;64.65;102044.38;5097075;27;46471;-60
2021/11/23 01:31:54;;;;;;;;;23.25;18.50;;;;;3.93;64.80;102044.38;5078219;27;63665;-60
2021/11/23 01:34:20;;;;;;;;;24.50;19.25;;;;;3.92;64.88;102040.06;5078003;27;66499;-60
2021/11/23 01:36:49;;;;;;;;;21.75;18.50;;;;;3.92;64.61;102043.50;5097227;27;45568;-60
2021/11/23 01:39:15;;;;;;;;;23.00;21.25;;;;;3.92;64.97;102045.28;5096916;27;46234;-60
2021/11/23 01:41:40;;;;;;;;;24.75;20.50;;;;;3.90;64.89;102047.91;5096679;27;45307;-60
2021/11/23 01:44:06;;;;;;;;;31.00;23.00;;;;;3.89;65.02;102046.22;5096181;27;62994;-60
2021/11/23 01:46:31;;;;;;;;;24.75;22.00;;;;;3.89;64.98;102056.63;5061505;27;52225;-60
2021/11/23 01:48:57;;;;;;;;;28.75;20.50;;;;;3.88;64.94;102052.31;5078395;27;46187;-60
2021/11/23 01:51:22;;;;;;;;;24.75;20.50;;;;;3.89;64.76;102056.63;5078589;27;45320;-59
2021/11/23 01:53:48;;;;;;;;;30.00;23.00;;;;;3.87;65.30;102053.22;5061583;27;45529;-60
2021/11/23 01:56:13;;;;;;;;;29.00;23.75;;;;;3.86;65.21;102049.78;5061543;27;45534;-60
2021/11/23 01:58:39;;;;;;;;;25.00;21.75;;;;;3.85;64.96;102053.28;5078519;27;45356;-60
2021/11/23 02:01:07;;;;;;;;;27.50;21.75;;;;;3.85;65.04;102045.50;5078399;27;45392;-60
2021/11/23 02:03:34;;;;;;;;;31.50;24.25;;;;;3.84;64.90;102055.94;5096913;27;45299;-60
2021/11/23 02:05:59;;;;;;;;;23.25;21.75;;;;;3.82;64.93;102053.41;5096800;27;45313;-60
2021/11/23 02:08:25;;;;;;;;;29.25;22.50;;;;;3.81;64.99;102059.50;5078053;27;45344;-60
2021/11/23 02:10:50;;;;;;;;;23.75;21.00;;;;;3.81;64.99;102061.22;5077086;27;70339;-60
2021/11/23 02:13:15;;;;;;;;;27.00;22.00;;;;;3.79;64.83;102053.50;5096586;27;45310;-59
2021/11/23 02:15:41;;;;;;;;;27.75;22.25;;;;;3.77;64.94;102059.66;5043823;27;60180;-60
2021/11/23 02:18:17;;;;;;;;;25.50;23.00;;;;;3.74;65.09;102057.16;5096613;27;45424;-60
2021/11/23 02:20:43;;;;;;;;;22.75;19.00;;;;;3.73;64.62;102056.31;5095465;27;45815;-60
2021/11/23 02:23:08;;;;;;;;;26.50;22.75;;;;;3.72;64.99;102057.22;5078569;27;45335;-60
2021/11/23 02:25:33;;;;;;;;;26.00;22.75;;;;;3.69;64.78;102063.38;5077449;27;67054;-60
2021/11/23 02:28:00;;;;;;;;;25.50;22.50;;;;;3.67;64.83;102060.00;5095667;27;69274;-60
2021/11/23 02:30:25;;;;;;;;;28.50;22.75;;;;;3.65;64.78;102059.19;5096266;27;45722;-60
2021/11/23 02:32:53;;;;;;;;;34.00;21.75;;;;;3.61;64.69;102057.59;5095684;27;63652;-60
2021/11/23 02:35:23;;;;;;;;;25.50;20.75;;;;;3.59;64.78;102050.75;5096301;27;45382;-60
2021/11/23 02:37:52;;;;;;;;;26.50;18.75;;;;;3.57;64.80;102050.81;5096301;27;45606;-60
2021/11/23 02:40:17;;;;;;;;;25.50;21.50;;;;;3.57;64.64;102056.00;5079438;27;45847;-60
2021/11/23 02:42:43;;;;;;;;;29.25;23.00;;;;;3.55;65.05;102050.00;5099928;27;45390;-60
2021/11/23 02:45:09;;;;;;;;;23.25;22.25;;;;;3.55;64.85;102050.84;5099633;27;52253;-60
2021/11/23 02:47:37;;;;;;;;;26.25;20.75;;;;;3.55;64.88;102048.25;5081145;27;45597;-60
2021/11/23 02:50:03;;;;;;;;;27.50;23.00;;;;;3.54;64.81;102043.13;5099548;27;45782;-59
2021/11/23 02:52:28;;;;;;;;;24.25;22.00;;;;;3.55;64.61;102045.66;5099907;27;45212;-60
2021/11/23 02:54:57;;;;;;;;;31.75;23.75;;;;;3.56;64.86;102046.50;5099654;27;45255;-60
2021/11/23 02:57:27;;;;;;;;;25.00;23.00;;;;;3.56;64.52;102046.50;5099376;27;45491;-60
2021/11/23 02:59:52;;;;;;;;;27.75;21.50;;;;;3.58;64.76;102047.31;5098500;27;45441;-60
2021/11/23 03:02:18;;;;;;;;;33.25;26.00;;;;;3.58;64.80;102044.72;5099457;27;45611;-60
2021/11/23 03:04:49;;;;;;;;;27.00;22.75;;;;;3.59;64.58;102046.41;5080483;27;46334;-60
2021/11/23 03:07:14;;;;;;;;;23.50;21.25;;;;;3.59;64.37;102046.41;5081328;27;45484;-60
2021/11/23 03:09:40;;;;;;;;;26.50;21.00;;;;;3.57;64.26;102050.81;5081088;27;45386;-60
2021/11/23 03:12:06;;;;;;;;;26.50;22.00;;;;;3.58;64.42;102044.72;5080297;27;61791;-60
2021/11/23 03:14:31;;;;;;;;;26.25;23.00;;;;;3.56;64.38;102041.31;5099416;27;45528;-60
2021/11/23 03:16:56;;;;;;;;;32.25;21.75;;;;;3.56;64.46;102036.94;5099145;27;47195;-60
2021/11/23 03:19:22;;;;;;;;;26.25;22.50;;;;;3.57;64.20;102035.22;5098424;27;62490;-60
2021/11/23 03:21:47;;;;;;;;;23.50;19.50;;;;;3.56;64.44;102036.13;5098756;27;58062;-60
2021/11/23 03:24:12;;;;;;;;;24.25;22.50;;;;;3.56;64.12;102025.72;5099379;27;45805;-60
2021/11/23 03:26:38;;;;;;;;;26.50;22.25;;;;;3.53;64.15;102024.06;5098050;27;70330;-60
2021/11/23 03:29:03;;;;;;;;;31.50;24.75;;;;;3.53;64.07;102025.81;5098669;27;58661;-60
2021/11/23 03:31:29;;;;;;;;;29.75;23.00;;;;;3.52;64.51;102029.31;5080139;27;57266;-60
2021/11/23 03:33:54;;;;;;;;;22.00;19.25;;;;;3.50;64.20;102031.13;5099133;27;45334;-60
2021/11/23 03:36:20;;;;;;;;;24.75;18.00;;;;;3.50;64.31;102036.31;5098559;27;55486;-60
2021/11/23 03:38:45;;;;;;;;;23.25;20.50;;;;;3.46;64.10;102029.53;5098984;27;45334;-60
2021/11/23 03:41:10;;;;;;;;;22.00;21.25;;;;;3.43;64.03;102030.50;5079927;27;45397;-60
2021/11/23 03:43:36;;;;;;;;;22.75;17.50;;;;;3.37;64.26;102015.94;5098864;27;45355;-60
2021/11/23 03:46:01;;;;;;;;;22.50;22.00;;;;;3.32;64.68;102019.63;5080419;27;45877;-60
2021/11/23 03:48:27;;;;;;;;;29.00;21.25;;;;;3.27;64.52;102022.34;5080190;27;53697;-60
2021/11/23 03:50:52;;;;;;;;;24.25;22.00;;;;;3.22;64.31;102022.53;5097449;27;45247;-60
2021/11/23 03:53:17;;;;;;;;;26.75;20.75;;;;;3.17;64.59;102027.03;5079796;27;62977;-60
2021/11/23 03:55:48;;;;;;;;;25.75;20.00;;;;;3.11;64.55;102025.50;5098593;27;46258;-60
2021/11/23 03:58:14;;;;;;;;;28.00;19.50;;;;;3.07;64.64;102028.22;5098600;27;45820;-60
2021/11/23 04:00:39;;;;;;;;;25.50;21.25;;;;;3.05;64.73;102036.06;5097868;27;63425;-60
2021/11/23 04:03:05;;;;;;;;;27.50;19.75;;;;;3.06;64.50;102026.53;5098667;27;45161;-59
2021/11/23 04:05:30;;;;;;;;;19.75;17.50;;;;;3.06;64.69;102021.31;5098375;27;45356;-60
2021/11/23 04:07:55;;;;;;;;;19.25;19.25;;;;;3.09;64.25;102026.41;5098497;27;45207;-60
2021/11/23 04:10:21;;;;;;;;;18.00;17.00;;;;;3.10;64.46;102021.19;5098438;27;45331;-60
2021/11/23 04:12:47;;;;;;;;;26.50;21.00;;;;;3.11;64.35;102025.50;5063136;27;45466;-60
2021/11/23 04:15:12;;;;;;;;;25.00;18.00;;;;;3.11;64.25;102022.03;5098214;27;45472;-60
2021/11/23 04:17:37;;;;;;;;;25.75;19.75;;;;;3.09;64.26;102029.88;5098071;27;47108;-60
2021/11/23 04:20:04;;;;;;;;;26.00;22.00;;;;;3.13;64.07;102022.00;5098349;27;45719;-60
2021/11/23 04:22:29;;;;;;;;;18.25;12.00;;;;;3.10;64.10;102018.59;5096975;27;45600;-60
2021/11/23 04:24:55;;;;;;;;;22.00;16.75;;;;;3.13;63.88;102022.00;5097693;27;54777;-59
2021/11/23 04:27:20;;;;;;;;;23.50;19.00;;;;;3.13;64.25;102022.81;5097444;27;62128;-60
2021/11/23 04:29:45;;;;;;;;;23.00;17.75;;;;;3.13;63.66;102022.81;5097466;27;61053;-60
2021/11/23 04:32:11;;;;;;;;;28.25;20.50;;;;;3.15;63.78;102028.00;5098149;27;45375;-60
2021/11/23 04:34:36;;;;;;;;;26.50;19.25;;;;;3.14;63.92;102015.91;5097042;27;71725;-60
2021/11/23 04:37:02;;;;;;;;;23.75;21.50;;;;;3.15;64.14;102018.44;5079714;27;45441;-60
2021/11/23 04:39:27;;;;;;;;;27.50;22.75;;;;;3.15;63.75;102022.78;5097877;27;45372;-60
2021/11/23 04:41:53;;;;;;;;;22.00;20.50;;;;;3.12;63.68;102018.53;5097662;27;45904;-60
2021/11/23 04:44:18;;;;;;;;;22.25;18.25;;;;;3.11;63.72;102025.50;5097223;27;64088;-60
2021/11/23 04:46:43;;;;;;;;;21.00;16.00;;;;;3.09;63.59;102029.88;5097163;27;60953;-60
2021/11/23 04:49:09;;;;;;;;;24.25;18.25;;;;;3.08;63.65;102032.50;5079774;27;45260;-60
2021/11/23 04:51:34;;;;;;;;;23.75;18.75;;;;;3.07;63.50;102029.09;5097832;27;45495;-60
2021/11/23 04:54:00;;;;;;;;;21.50;17.25;;;;;3.05;63.80;102025.69;5079454;27;45339;-60
2021/11/23 04:56:26;;;;;;;;;18.75;15.75;;;;;3.05;63.77;102028.28;5097606;27;45669;-60
2021/11/23 04:58:51;;;;;;;;;26.50;20.75;;;;;3.03;63.57;102027.47;5097786;27;45441;-60
2021/11/23 05:01:16;;;;;;;;;21.25;18.25;;;;;3.00;63.66;102027.59;5096789;27;65285;-59
2021/11/23 05:03:42;;;;;;;;;24.00;20.75;;;;;3.00;63.80;102030.19;5096749;27;52100;-60
2021/11/23 05:06:07;;;;;;;;;24.00;20.25;;;;;3.00;63.69;102027.59;5078607;27;45760;-60
2021/11/23 05:08:33;;;;;;;;;21.25;17.75;;;;;3.01;63.73;102028.41;5078537;27;60150;-60
2021/11/23 05:10:58;;;;;;;;;22.75;20.00;;;;;3.03;63.58;102029.22;5096600;27;60853;-60
2021/11/23 05:13:23;;;;;;;;;19.50;18.25;;;;;3.02;63.59;102030.97;5096724;27;60066;-60
2021/11/23 05:15:49;;;;;;;;;19.75;16.25;;;;;3.00;63.86;102027.59;5096391;27;67275;-60
2021/11/23 05:18:14;;;;;;;;;23.00;17.00;;;;;2.99;63.72;102036.28;5096448;27;63248;-59
2021/11/23 05:20:39;;;;;;;;;25.75;18.25;;;;;2.99;63.81;102028.47;5097234;27;45385;-60
2021/11/23 05:23:05;;;;;;;;;22.50;17.00;;;;;3.00;63.58;102027.59;5096965;27;45398;-60
2021/11/23 05:25:30;;;;;;;;;22.25;18.00;;;;;3.01;63.81;102028.41;5096130;27;67713;-60
2021/11/23 05:27:56;;;;;;;;;24.00;18.25;;;;;3.00;63.51;102025.00;5079043;27;45716;-60
2021/11/23 05:30:21;;;;;;;;;26.00;18.75;;;;;3.00;63.46;102027.59;5097049;27;45333;-60
2021/11/23 05:32:47;;;;;;;;;22.50;20.25;;;;;3.00;63.69;102035.38;5078036;27;56833;-60
2021/11/23 05:35:12;;;;;;;;;22.00;18.25;;;;;2.98;63.38;102044.97;5096876;27;45430;-60
2021/11/23 05:37:37;;;;;;;;;23.75;17.00;;;;;2.97;63.48;102048.47;5078793;27;45391;-60
2021/11/23 05:40:04;;;;;;;;;29.75;19.00;;;;;2.94;63.50;102041.59;5096944;27;45574;-60
2021/11/23 05:42:30;;;;;;;;;21.75;18.50;;;;;2.95;63.71;102047.66;5078863;27;46702;-60
2021/11/23 05:44:55;;;;;;;;;22.50;20.25;;;;;2.95;63.83;102047.66;5078750;27;45375;-60
2021/11/23 05:47:21;;;;;;;;;23.75;18.00;;;;;2.96;63.85;102049.34;5096280;27;56075;-60
2021/11/23 05:49:46;;;;;;;;;16.00;15.75;;;;;2.96;63.48;102044.16;5096714;27;45577;-60
2021/11/23 05:52:11;;;;;;;;;15.25;14.25;;;;;2.98;63.67;102050.16;5060764;27;45421;-60
2021/11/23 05:54:37;;;;;;;;;21.75;17.00;;;;;2.99;63.46;102051.00;5095848;27;67198;-60
2021/11/23 05:57:03;;;;;;;;;20.50;14.75;;;;;3.00;63.56;102058.75;5096725;27;45245;-60
2021/11/23 05:59:28;;;;;;;;;20.25;14.75;;;;;3.02;63.49;102054.34;5096742;27;45549;-60
2021/11/23 06:01:53;;;;;;;;;19.50;12.50;;;;;3.02;63.36;102051.75;5077564;27;71509;-59
2021/11/23 06:04:19;;;;;;;;;19.00;15.25;;;;;3.02;63.38;102054.34;5096561;27;45392;-60
2021/11/23 06:06:44;;;;;;;;;19.75;14.75;;;;;3.04;63.20;102051.69;5096907;27;45334;-60
2021/11/23 06:09:09;;;;;;;;;15.25;12.00;;;;;3.04;63.10;102057.75;5096461;27;45593;-60
2021/11/23 06:11:35;;;;;;;;;21.25;14.75;;;;;3.06;63.08;102060.28;5096308;27;45350;-60
2021/11/23 06:14:00;;;;;;;;;24.00;17.00;;;;;3.06;62.90;102057.69;5096167;27;62258;-60
2021/11/23 06:16:26;;;;;;;;;17.25;12.50;;;;;3.05;62.86;102064.63;5100269;27;45310;-60
2021/11/23 06:18:52;;;;;;;;;12.50;10.25;;;;;3.05;62.70;102062.03;5082120;27;45522;-60
2021/11/23 06:21:19;;;;;;;;;19.75;12.25;;;;;3.06;62.68;102057.69;5099792;27;53018;-60
2021/11/23 06:23:44;;;;;;;;;19.25;14.50;;;;;3.07;62.46;102060.25;5081616;27;45329;-60
2021/11/23 06:26:10;;;;;;;;;15.50;11.50;;;;;3.08;62.23;102056.75;5082080;27;45300;-60
2021/11/23 06:28:35;;;;;;;;;13.25;9.75;;;;;3.08;61.87;102061.09;5081822;27;45571;-60
2021/11/23 06:31:01;;;;;;;;;16.75;12.00;;;;;3.07;61.66;102049.00;5099839;27;45600;-60
2021/11/23 06:33:26;;;;;;;;;10.25;10.00;;;;;3.08;61.80;102061.09;5099235;27;62168;-60
2021/11/23 06:35:51;;;;;;;;;15.50;12.00;;;;;3.09;61.71;102063.66;5099818;27;45346;-60
2021/11/23 06:38:17;;;;;;;;;15.50;10.75;;;;;3.11;61.87;102055.78;5099690;27;45367;-60
2021/11/23 06:40:42;;;;;;;;;13.50;9.75;;;;;3.13;61.33;102068.75;5080353;27;68695;-60
2021/11/23 06:43:08;;;;;;;;;20.75;13.25;;;;;3.13;61.54;102068.75;5081353;27;45510;-60
2021/11/23 06:45:34;;;;;;;;;11.50;8.75;;;;;3.15;61.34;102064.34;5081606;27;45423;-60
2021/11/23 06:47:59;;;;;;;;;13.75;12.50;;;;;3.15;61.62;102078.16;5080629;27;45656;-60
2021/11/23 06:50:31;;;;;;;;;13.25;10.75;;;;;3.17;61.13;102073.78;5098973;27;60533;-60
2021/11/23 06:52:56;;;;;;;;;14.00;13.25;;;;;3.17;60.81;102075.53;5082336;27;45309;-60
2021/11/23 06:55:22;;;;;;;;;9.75;7.00;;;;;3.15;61.16;102074.75;5098842;27;61902;-60
2021/11/23 06:57:47;;;;;;;;;12.25;10.25;;;;;3.17;61.02;102076.38;5099282;27;50959;-60
2021/11/23 07:00:13;;;;;;;;;11.25;10.25;;;;;3.17;61.02;102076.38;5098647;27;65765;-60
2021/11/23 07:02:38;;;;;;;;;11.00;7.75;;;;;3.20;60.57;102085.81;5098468;27;45372;-60
2021/11/23 07:05:04;;;;;;;;;12.00;10.50;;;;;3.21;60.70;102082.31;5098486;27;62189;-60
2021/11/23 07:07:29;;;;;;;;;13.50;11.00;;;;;3.22;60.50;102081.41;5099091;27;45596;-60
2021/11/23 07:09:55;;;;;;;;;15.00;11.50;;;;;3.22;60.47;102099.59;5098171;27;65089;-60
2021/11/23 07:12:20;;;;;;;;;10.25;9.25;;;;;3.22;60.49;102090.06;5099049;27;45274;-59
2021/11/23 07:14:46;;;;;;;;;17.75;15.75;;;;;3.23;60.31;102098.69;5099178;27;45482;-60
2021/11/23 07:17:11;;;;;;;;;10.50;10.00;;;;;3.21;60.47;102096.16;5098581;27;61445;-60
2021/11/23 07:19:37;;;;;;;;;11.75;10.25;;;;;3.24;60.54;102090.00;5098991;27;45415;-60
2021/11/23 07:22:02;;;;;;;;;8.00;7.75;;;;;3.24;60.47;102087.41;5099085;27;45285;-60
2021/11/23 07:24:28;;;;;;;;;11.00;9.75;;;;;3.26;60.36;102088.19;5098563;27;58782;-60
2021/11/23 07:26:53;;;;;;;;;14.75;11.25;;;;;3.27;59.90;102089.91;5098698;27;45433;-60
2021/11/23 07:29:19;;;;;;;;;11.50;7.50;;;;;3.29;60.22;102102.84;5098983;27;46250;-60
2021/11/23 07:31:44;;;;;;;;;13.00;10.00;;;;;3.29;60.05;102111.47;5097803;27;62626;-61
2021/11/23 07:34:09;;;;;;;;;10.75;9.75;;;;;3.32;60.00;102107.97;5098680;27;45247;-60
2021/11/23 07:36:36;;;;;;;;;10.75;9.00;;;;;3.31;60.21;102112.28;5098119;27;62957;-60
2021/11/23 07:39:02;;;;;;;;;10.50;8.75;;;;;3.32;60.63;102116.59;5098835;27;45529;-60
2021/11/23 07:41:28;;;;;;;;;11.00;9.75;;;;;3.34;60.01;102126.94;5079699;27;63653;-60
2021/11/23 07:43:54;;;;;;;;;11.00;10.50;;;;;3.34;59.91;102129.53;5099029;27;45463;-60
2021/11/23 07:46:20;;;;;;;;;13.50;10.50;;;;;3.36;60.02;102131.19;5098854;27;45354;-60
2021/11/23 07:48:45;;;;;;;;;10.50;10.00;;;;;3.36;59.85;102136.38;5098718;27;45331;-60
2021/11/23 07:51:11;;;;;;;;;11.00;10.25;;;;;3.36;59.87;102128.56;5080287;27;45356;-60
2021/11/23 07:53:36;;;;;;;;;15.25;14.25;;;;;3.40;59.99;102139.75;5098623;27;45462;-60
2021/11/23 07:56:02;;;;;;;;;10.75;8.25;;;;;3.42;59.70;102145.72;5098377;27;45552;-60
2021/11/23 07:58:27;;;;;;;;;12.00;11.00;;;;;3.44;59.81;102150.88;5079863;27;46345;-60
2021/11/23 08:00:52;;;;;;;;;7.00;7.00;;;;;3.47;59.59;102153.38;5098339;27;45476;-60
2021/11/23 08:03:18;;;;;;;;;11.50;8.00;;;;;3.49;59.42;102152.41;5080084;27;49367;-60
2021/11/23 08:05:43;;;;;;;;;14.50;11.75;;;;;3.52;59.35;102161.88;5079573;27;45439;-62
2021/11/23 08:08:10;;;;;;;;;12.50;12.00;;;;;3.56;59.51;102166.06;5097818;27;47547;-60
2021/11/23 08:10:35;;;;;;;;;12.25;9.25;;;;;3.59;59.29;102165.09;5098305;27;45300;-62
2021/11/23 08:13:01;;;;;;;;;12.75;11.75;;;;;3.61;59.18;102171.97;5098379;27;45390;-60
2021/11/23 08:15:27;;;;;;;;;13.00;11.00;;;;;3.64;59.12;102182.28;5097982;27;45438;-61
2021/11/23 08:17:52;;;;;;;;;11.00;10.00;;;;;3.66;58.98;102180.47;5097980;27;46313;-60
2021/11/23 08:20:18;;;;;;;;;8.75;8.75;;;;;3.68;58.97;102181.28;5097979;27;45226;-60
2021/11/23 08:22:45;;;;;;;;;9.75;7.00;;;;;3.71;58.90;102182.91;5098053;27;45402;-60
2021/11/23 08:25:10;;;;;;;;;8.75;8.00;;;;;3.74;58.76;102184.53;5080091;27;45372;-60
2021/11/23 08:27:35;;;;;;;;;12.50;11.75;;;;;3.75;58.41;102179.31;5096896;27;72009;-60
2021/11/23 08:30:03;;;;;;;;;15.75;9.25;;;;;3.78;58.70;102184.41;5062662;27;45443;-60
2021/11/23 08:32:28;;;;;;;;;10.50;9.25;;;;;3.81;58.63;102171.31;5097791;27;45268;-59
2021/11/23 08:34:53;;;;;;;;;28.25;24.50;;;;;3.83;58.53;102184.25;5075553;27;58695;-59
2021/11/23 08:37:19;;;;;;;;;12.00;11.00;;;;;3.85;58.22;102172.91;5080361;27;45360;-60
2021/11/23 08:39:44;;;;;;;;;11.25;9.25;;;;;3.89;58.29;102176.22;5074392;27;69304;-60
2021/11/23 08:42:10;;;;;;;;;11.75;9.00;;;;;3.91;58.05;102171.84;5029558;28;55114;-60
2021/11/23 08:44:35;;;;;;;;;14.25;8.50;;;;;3.95;58.19;102170.81;5055657;28;45441;-60
2021/11/23 08:47:01;;;;;;;;;8.75;8.50;;;;;3.99;58.12;102172.41;5055464;28;63425;-60
2021/11/23 08:49:26;;;;;;;;;8.00;8.00;;;;;4.04;57.84;102176.63;5047058;28;45522;-60
2021/11/23 08:51:53;;;;;;;;;17.25;9.25;;;;;4.08;57.66;102180.81;5056098;28;45427;-60
2021/11/23 08:54:18;;;;;;;;;9.00;6.50;;;;;4.13;57.03;102182.34;5055669;28;45498;-60
2021/11/23 08:56:52;;;;;;;;;8.75;7.50;;;;;4.18;57.29;102171.78;5056419;28;56324;-60
2021/11/23 08:59:18;;;;;;;;;7.00;7.00;;;;;4.26;56.80;102182.75;5042867;28;45490;-59
2021/11/23 09:01:45;;;;;;;;;8.75;6.50;;;;;4.35;56.93;102178.13;5054674;28;45506;-60
2021/11/23 09:04:10;;;;;;;;;10.75;6.75;;;;;4.42;56.94;102177.88;5075006;28;45338;-59
2021/11/23 09:06:39;;;;;;;;;9.00;6.75;;;;;4.52;56.97;102177.50;5056149;28;45442;-60
2021/11/23 09:09:07;;;;;;;;;9.25;7.00;;;;;4.62;56.27;102178.88;5037674;28;45762;-59
2021/11/23 09:11:32;;;;;;;;;7.00;3.00;;;;;4.75;56.20;102179.31;5055243;28;45252;-59
2021/11/23 09:13:58;;;;;;;;;10.25;6.00;;;;;4.93;55.95;102179.50;5055441;28;45577;-60
2021/11/23 09:16:23;;;;;;;;;5.50;4.00;;;;;5.14;55.50;102170.84;5055214;28;58332;-60
2021/11/23 09:18:49;;;;;;;;;4.00;4.00;;;;;5.43;55.30;102181.03;5056629;28;45476;-61
2021/11/23 09:21:14;;;;;;;;;4.00;4.00;;;;;5.74;54.89;102184.97;5054759;28;45489;-62
2021/11/23 09:23:40;;;;;;;;;8.00;6.25;;;;;6.02;53.88;102183.88;5055417;28;45373;-62
2021/11/23 09:26:05;;;;;;;;;5.25;3.00;;;;;6.31;53.47;102181.72;5057096;28;45281;-62
2021/11/23 09:28:30;;;;;;;;;5.00;4.00;;;;;6.58;53.23;102184.88;5054890;28;45376;-61
2021/11/23 09:30:56;;;;;;;;;3.00;3.00;;;;;6.85;51.83;102184.56;5054900;28;68175;-62
2021/11/23 09:33:21;;;;;;;;;5.50;4.00;;;;;7.13;51.35;102183.25;5063688;28;45630;-62
2021/11/23 09:35:47;;;;;;;;;8.00;4.00;;;;;7.41;51.21;102187.16;5063468;28;72049;-62
2021/11/23 09:38:12;;;;;;;;;7.50;4.25;;;;;7.68;50.22;102178.88;5055572;28;67656;-62
2021/11/23 09:40:37;;;;;;;;;7.00;3.00;;;;;7.94;49.53;102190.63;5063176;27;66091;-62
2021/11/23 09:43:04;;;;;;;;;5.00;3.00;;;;;8.17;48.95;102193.88;5056196;27;66362;-62
2021/11/23 09:45:29;;;;;;;;;5.25;4.00;;;;;8.39;48.44;102190.97;5074825;27;45454;-62
2021/11/23 09:47:55;;;;;;;;;4.00;2.50;;;;;8.60;47.71;102193.38;5056624;28;45512;-62
2021/11/23 09:50:20;;;;;;;;;2.50;2.50;;;;;8.80;47.41;102191.47;5075365;27;45320;-62
2021/11/23 09:52:46;;;;;;;;;4.75;3.00;;;;;9.00;46.79;102180.75;5045600;27;45642;-61
2021/11/23 09:55:12;;;;;;;;;4.50;3.00;;;;;9.22;46.79;102194.44;5075475;27;45301;-62
2021/11/23 09:57:37;;;;;;;;;4.00;4.00;;;;;9.42;46.27;102188.88;5074981;27;45402;-62
2021/11/23 10:00:05;;;;;;;;;3.25;3.00;;;;;9.61;45.79;102186.03;5075284;27;45408;-62
2021/11/23 10:02:31;;;;;;;;;4.00;3.00;;;;;9.81;45.87;102176.16;5075000;27;45585;-62
2021/11/23 10:05:01;;;;;;;;;4.50;2.00;;;;;10.02;44.61;102170.59;5057176;28;45665;-62
2021/11/23 10:07:37;;;;;;;;;4.25;3.25;;;;;10.21;44.58;102168.53;5074502;27;45861;-62
2021/11/23 10:10:35;;;;;;;;;4.00;2.50;;;;;10.37;44.38;102178.09;5074522;27;45305;-62
2021/11/23 10:13:01;;;;;;;;;2.50;1.75;;;;;10.51;43.42;102172.88;5044598;27;45568;-62
2021/11/23 10:15:30;;;;;;;;;2.00;2.00;;;;;10.64;43.20;102167.69;5074323;27;56680;-62
2021/11/23 10:18:24;;;;;;;;;3.00;2.00;;;;;10.80;42.82;102170.19;5075263;27;45391;-62
2021/11/23 10:20:55;;;;;;;;;2.50;2.50;;;;;10.94;42.76;102163.22;5060580;27;45323;-62
2021/11/23 10:23:25;;;;;;;;;2.50;2.00;;;;;11.08;42.28;102163.19;5077851;27;45680;-62
2021/11/23 10:25:52;;;;;;;;;3.25;2.25;;;;;11.22;41.92;102159.66;5075122;27;45617;-63
2021/11/23 10:28:18;;;;;;;;;2.50;2.00;;;;;11.33;41.50;102145.78;5073069;27;45994;-62
2021/11/23 10:30:45;;;;;;;;;2.00;2.00;;;;;11.42;40.73;102149.56;5055837;27;45309;-62
2021/11/23 10:33:11;;;;;;;;;2.00;1.50;;;;;11.43;40.62;102141.59;5074598;27;45354;-62
2021/11/23 10:35:38;;;;;;;;;2.00;1.25;;;;;11.45;39.91;102140.66;5074277;27;46302;-63
2021/11/23 10:38:07;;;;;;;;;3.00;2.00;;;;;11.43;40.79;102135.47;5078013;27;45524;-62
2021/11/23 10:40:32;;;;;;;;;2.00;2.00;;;;;11.38;40.60;102134.97;5044768;28;45291;-62
2021/11/23 10:43:04;;;;;;;;;2.25;2.25;;;;;11.31;40.43;102125.78;5054120;28;51001;-60
2021/11/23 10:45:37;;;;;;;;;1.75;1.00;;;;;11.24;40.41;102134.06;5055481;28;46201;-63
2021/11/23 10:48:04;;;;;;;;;3.00;2.00;;;;;11.17;39.79;102140.69;5059944;28;45453;-62
2021/11/23 10:50:29;;;;;;;;;1.25;1.25;;;;;11.03;40.36;102130.22;5058104;28;45515;-62
2021/11/23 10:52:54;;;;;;;;;2.00;1.75;;;;;10.92;40.46;102136.16;5055606;28;56506;-60
2021/11/23 10:55:24;;;;;;;;;2.00;2.00;;;;;10.83;40.22;102133.19;5047083;28;64914;-62
2021/11/23 10:57:50;;;;;;;;;2.25;1.25;;;;;10.74;40.32;102132.94;5049963;28;45942;-60
2021/11/23 11:00:15;;;;;;;;;5.75;3.00;;;;;10.69;40.88;102135.84;5056892;28;45471;-62
2021/11/23 11:02:41;;;;;;;;;1.50;1.25;;;;;10.63;40.38;102130.97;5047440;28;45443;-62
2021/11/23 11:05:12;;;;;;;;;2.25;0.50;;;;;10.53;39.90;102133.34;5067752;28;46341;-62
2021/11/23 11:07:38;;;;;;;;;2.00;2.00;;;;;10.45;39.83;102127.72;5057920;28;45456;-62
2021/11/23 11:10:05;;;;;;;;;1.00;1.00;;;;;10.37;40.45;102118.50;5057332;28;45455;-61
2021/11/23 11:12:30;;;;;;;;;2.00;1.00;;;;;10.32;40.46;102127.63;5058328;28;45533;-62
2021/11/23 11:14:56;;;;;;;;;1.00;1.00;;;;;10.29;40.26;102127.81;5059577;28;47128;-61
2021/11/23 11:17:23;;;;;;;;;1.00;1.00;;;;;10.24;40.79;102126.31;5060155;28;45517;-61